Vancouver, Canada
Current Conditions -  °F | °C
As of 4:20 PM on Friday 21 Nov 2014 (Local Time) from CYVR Reporting Station
Light Rain Light Rain  
Wind Chill: 43°   Ceiling: 2100
Heat Index: 48°   Visibility: 10mi
Dew Point: 46°   Wind: 14mph
Humidity: 93%   Direction: 90°E
Pressure: 29.31"   Gusts: 22mph
Location:  49.26°N, 123.11°W
Report Text: CYVR 220020Z 09012G19KT 10SM -RA FEW008 FEW012 SCT017 OVC021 09/08 A2931 RMK SF1SF1NS2NS4 VIS N 8SM SLP925
Loading
Personal Weather Stations






























Interactive Weather Map New forecast layout! Learn more

10-Day Weather Forecast

Advertisements
Track Severe Weather on mobile